createdAt,value
2023-05-14T00:02:22.110Z,12.98
2023-05-14T00:04:49.961Z,12.91
2023-05-14T00:07:17.809Z,12.99
2023-05-14T00:09:45.518Z,12.75
2023-05-14T00:12:13.188Z,12.99
2023-05-14T00:14:40.821Z,12.79
2023-05-14T00:17:08.550Z,12.72
2023-05-14T00:19:37.628Z,12.57
2023-05-14T00:22:05.577Z,12.74
2023-05-14T00:24:33.288Z,12.70
2023-05-14T00:27:00.986Z,12.79
2023-05-14T00:29:28.653Z,12.64
2023-05-14T00:31:56.351Z,12.75
2023-05-14T00:34:24.268Z,12.57
2023-05-14T00:36:53.668Z,12.72
2023-05-14T00:39:21.348Z,12.68
2023-05-14T00:41:49.020Z,12.64
2023-05-14T00:44:16.735Z,12.60
2023-05-14T00:46:44.677Z,12.65
2023-05-14T00:49:12.427Z,12.45
2023-05-14T00:51:41.452Z,12.69
2023-05-14T00:54:10.951Z,12.75
2023-05-14T00:56:38.609Z,12.66
2023-05-14T00:59:06.445Z,12.72
2023-05-14T01:01:34.277Z,12.42
2023-05-14T01:04:02.384Z,12.63
2023-05-14T01:06:33.533Z,12.50
2023-05-14T01:09:09.096Z,12.44
2023-05-14T01:11:43.819Z,12.32
2023-05-14T01:14:17.340Z,12.42
2023-05-14T01:16:46.792Z,12.43
2023-05-14T01:19:22.883Z,12.45
2023-05-14T01:21:51.920Z,12.37
2023-05-14T01:24:20.098Z,12.43
2023-05-14T01:26:47.811Z,12.41
2023-05-14T01:29:21.491Z,12.29
2023-05-14T01:31:51.161Z,12.32
2023-05-14T01:34:21.373Z,12.46
2023-05-14T01:36:49.747Z,12.46
2023-05-14T01:39:18.909Z,12.57
2023-05-14T01:41:47.146Z,12.33
2023-05-14T01:44:15.172Z,12.45
2023-05-14T01:46:42.942Z,12.25
2023-05-14T01:49:10.640Z,12.33
2023-05-14T01:51:38.320Z,12.10
2023-05-14T01:54:06.202Z,12.25
2023-05-14T01:56:35.357Z,12.04
2023-05-14T01:59:03.109Z,12.12
2023-05-14T02:01:30.902Z,12.08
2023-05-14T02:03:58.702Z,12.32
2023-05-14T02:06:26.428Z,12.24
2023-05-14T02:08:54.211Z,12.15
2023-05-14T02:11:22.019Z,12.17
2023-05-14T02:13:51.095Z,12.15
2023-05-14T02:16:19.308Z,12.19
2023-05-14T02:18:47.105Z,12.21
2023-05-14T02:21:14.816Z,12.20
2023-05-14T02:23:43.025Z,12.15
2023-05-14T02:26:11.030Z,11.96
2023-05-14T02:28:38.823Z,12.05
2023-05-14T02:31:07.992Z,11.96
2023-05-14T02:33:36.011Z,12.04
2023-05-14T02:36:03.860Z,11.85
2023-05-14T02:38:31.577Z,11.79
2023-05-14T02:40:59.658Z,11.75
2023-05-14T02:43:27.332Z,11.76
2023-05-14T02:45:55.041Z,11.68
2023-05-14T02:48:24.197Z,11.79
2023-05-14T02:50:52.208Z,11.86
2023-05-14T02:53:19.934Z,11.71
2023-05-14T02:55:47.574Z,11.69
2023-05-14T02:58:15.915Z,11.72
2023-05-14T03:00:43.606Z,11.75
2023-05-14T03:03:11.776Z,11.70
2023-05-14T03:05:41.392Z,11.79
2023-05-14T03:08:09.054Z,11.85
2023-05-14T03:10:37.053Z,11.82
2023-05-14T03:13:04.848Z,11.85
2023-05-14T03:15:32.492Z,11.77
2023-05-14T03:18:00.200Z,11.84
2023-05-14T03:20:28.161Z,11.72
2023-05-14T03:22:57.230Z,11.84
2023-05-14T03:25:24.884Z,11.76
2023-05-14T03:27:52.719Z,11.88
2023-05-14T03:30:20.536Z,11.93
2023-05-14T03:32:49.225Z,11.89
2023-05-14T03:35:17.071Z,11.95
2023-05-14T03:37:44.925Z,11.85
2023-05-14T03:40:14.149Z,11.82
2023-05-14T03:42:41.793Z,11.78
2023-05-14T03:45:10.779Z,11.68
2023-05-14T03:47:38.573Z,11.78
2023-05-14T03:50:07.677Z,11.80
2023-05-14T03:52:35.443Z,11.88
2023-05-14T03:55:03.119Z,11.80
2023-05-14T03:57:32.202Z,11.87
2023-05-14T03:59:59.841Z,11.74
2023-05-14T04:02:27.611Z,11.76
2023-05-14T04:04:55.437Z,11.75
2023-05-14T04:07:23.590Z,11.87
2023-05-14T04:09:52.126Z,11.96
2023-05-14T04:12:19.899Z,11.80
2023-05-14T04:14:48.989Z,11.95
2023-05-14T04:17:16.656Z,11.86
2023-05-14T04:19:44.368Z,11.83
2023-05-14T04:22:12.148Z,11.88
2023-05-14T04:24:39.866Z,11.92
2023-05-14T04:27:07.596Z,12.05
2023-05-14T04:29:35.283Z,12.37
2023-05-14T04:32:04.883Z,12.40
2023-05-14T04:34:32.687Z,12.17
2023-05-14T04:37:00.368Z,12.45
2023-05-14T04:39:28.057Z,12.55
2023-05-14T04:41:55.768Z,12.10
2023-05-14T04:44:23.461Z,11.87
2023-05-14T04:46:51.203Z,12.28
2023-05-14T04:49:20.836Z,12.61
2023-05-14T04:51:48.657Z,12.90
2023-05-14T04:54:16.392Z,12.88
2023-05-14T04:56:44.116Z,13.28
2023-05-14T04:59:11.840Z,13.23
2023-05-14T05:01:39.621Z,12.98
2023-05-14T05:04:07.458Z,12.61
2023-05-14T05:06:36.520Z,13.24
2023-05-14T05:09:04.519Z,13.18
2023-05-14T05:11:32.194Z,13.29
2023-05-14T05:14:00.288Z,14.01
2023-05-14T05:16:28.005Z,15.41
2023-05-14T05:18:55.845Z,16.82
2023-05-14T05:21:23.579Z,16.95
2023-05-14T05:23:52.611Z,15.93
2023-05-14T05:26:22.274Z,15.88
2023-05-14T05:28:49.990Z,16.01
2023-05-14T05:31:19.653Z,16.37
2023-05-14T05:33:47.724Z,16.86
2023-05-14T05:36:15.427Z,17.01
2023-05-14T05:38:43.192Z,17.47
2023-05-14T05:41:12.237Z,16.98
2023-05-14T05:43:39.959Z,16.12
2023-05-14T05:46:08.121Z,15.69
2023-05-14T05:48:35.839Z,15.19
2023-05-14T05:51:03.492Z,15.19
2023-05-14T05:53:31.213Z,15.42
2023-05-14T05:55:58.910Z,15.78
2023-05-14T05:58:27.987Z,16.41
2023-05-14T06:00:57.604Z,17.25
2023-05-14T06:03:25.307Z,17.60
2023-05-14T06:05:53.637Z,17.53
2023-05-14T06:08:21.727Z,16.77
2023-05-14T06:10:49.374Z,16.22
2023-05-14T06:13:17.069Z,15.77
2023-05-14T06:15:46.089Z,16.41
2023-05-14T06:18:13.805Z,17.59
2023-05-14T06:20:41.687Z,17.21
2023-05-14T06:23:12.237Z,17.08
2023-05-14T06:25:39.971Z,16.79
2023-05-14T06:28:07.623Z,16.87
2023-05-14T06:30:35.318Z,16.23
2023-05-14T06:33:04.649Z,16.61
2023-05-14T06:35:32.430Z,17.70
2023-05-14T06:38:00.134Z,18.93
2023-05-14T06:40:27.895Z,18.73
2023-05-14T06:42:55.568Z,17.47
2023-05-14T06:45:23.619Z,17.24
2023-05-14T06:47:51.382Z,17.16
2023-05-14T06:50:20.579Z,19.08
2023-05-14T06:52:48.403Z,20.06
2023-05-14T06:55:16.119Z,20.83
2023-05-14T06:57:44.638Z,19.07
2023-05-14T07:00:14.353Z,19.19
2023-05-14T07:02:42.086Z,18.32
2023-05-14T07:05:10.346Z,18.81
2023-05-14T07:07:39.880Z,18.43
2023-05-14T07:10:09.193Z,18.33
2023-05-14T07:12:37.266Z,18.22
2023-05-14T07:15:05.673Z,17.83
2023-05-14T07:17:33.343Z,18.00
2023-05-14T07:20:01.005Z,17.66
2023-05-14T07:22:28.627Z,18.00
2023-05-14T07:24:57.676Z,18.09
2023-05-14T07:27:25.340Z,18.12
2023-05-14T07:29:53.037Z,18.54
2023-05-14T07:32:20.719Z,18.55
2023-05-14T07:34:48.800Z,17.95
2023-05-14T07:37:16.705Z,17.79
2023-05-14T07:39:44.437Z,18.46
2023-05-14T07:42:21.790Z,19.22
2023-05-14T07:44:52.632Z,19.67
2023-05-14T07:47:20.393Z,19.32
2023-05-14T07:49:48.114Z,19.50
2023-05-14T07:52:15.860Z,19.80
2023-05-14T07:54:43.546Z,19.29
2023-05-14T07:57:11.260Z,19.40
2023-05-14T07:59:40.463Z,18.90
2023-05-14T08:02:10.125Z,19.61
2023-05-14T08:04:37.985Z,20.33
2023-05-14T08:07:07.272Z,20.70
2023-05-14T08:09:35.157Z,20.23
2023-05-14T08:12:02.900Z,20.62
2023-05-14T08:14:30.628Z,20.95
2023-05-14T08:17:00.068Z,21.26
2023-05-14T08:19:27.841Z,21.07
2023-05-14T08:21:55.550Z,20.78
2023-05-14T08:24:23.222Z,20.20
2023-05-14T08:26:50.908Z,19.66
2023-05-14T08:29:18.761Z,19.56
2023-05-14T08:31:46.511Z,20.23
2023-05-14T08:34:15.689Z,19.43
2023-05-14T08:36:43.567Z,19.19
2023-05-14T08:39:11.231Z,19.48
2023-05-14T08:41:38.893Z,19.43
2023-05-14T08:44:09.259Z,19.81
2023-05-14T08:46:37.887Z,19.66
2023-05-14T08:49:11.276Z,20.06
2023-05-14T08:51:41.083Z,19.40
2023-05-14T08:54:08.758Z,19.21
2023-05-14T08:56:36.942Z,19.03
2023-05-14T08:59:04.986Z,19.50
2023-05-14T09:01:32.785Z,20.38
2023-05-14T09:04:01.555Z,20.76
2023-05-14T09:06:29.578Z,20.95
2023-05-14T09:08:58.687Z,20.72
2023-05-14T09:11:26.393Z,20.89
2023-05-14T09:13:54.110Z,21.12
2023-05-14T09:16:22.149Z,21.96
2023-05-14T09:18:49.936Z,21.52
2023-05-14T09:21:18.939Z,20.86
2023-05-14T09:23:47.766Z,21.28
2023-05-14T09:26:18.162Z,22.20
2023-05-14T09:28:45.896Z,22.80
2023-05-14T09:31:13.696Z,22.42
2023-05-14T09:33:41.431Z,21.78
2023-05-14T09:36:09.479Z,22.32
2023-05-14T09:38:37.103Z,23.02
2023-05-14T09:41:04.998Z,23.45
2023-05-14T09:43:34.056Z,23.94
2023-05-14T09:46:01.750Z,24.08
2023-05-14T09:48:29.715Z,24.31
2023-05-14T09:50:57.623Z,24.32
2023-05-14T09:53:26.066Z,22.75
2023-05-14T09:55:53.782Z,23.28
2023-05-14T09:58:21.492Z,22.63
2023-05-14T10:00:51.297Z,23.28
2023-05-14T10:03:20.190Z,23.75
2023-05-14T10:05:51.105Z,23.77
2023-05-14T10:08:23.108Z,23.69
2023-05-14T10:10:52.442Z,23.30
2023-05-14T10:13:22.183Z,22.61
2023-05-14T10:15:54.954Z,23.28
2023-05-14T10:18:24.937Z,22.23
2023-05-14T10:20:58.384Z,23.47
2023-05-14T10:23:26.365Z,23.94
2023-05-14T10:25:54.214Z,24.03
2023-05-14T10:28:21.968Z,23.65
2023-05-14T10:30:51.096Z,24.26
2023-05-14T10:33:19.069Z,23.76
2023-05-14T10:35:56.306Z,24.05
2023-05-14T10:38:27.081Z,24.18
2023-05-14T10:41:00.138Z,24.14
2023-05-14T10:43:29.397Z,24.37
2023-05-14T10:45:59.401Z,24.44
2023-05-14T10:48:27.334Z,24.61
2023-05-14T10:50:55.613Z,24.82
2023-05-14T10:53:33.047Z,25.05
2023-05-14T10:56:05.310Z,25.43
2023-05-14T10:58:34.696Z,23.61
2023-05-14T11:01:04.787Z,23.30
2023-05-14T11:03:32.620Z,23.29
2023-05-14T11:06:02.497Z,23.97
2023-05-14T11:08:30.439Z,24.14
2023-05-14T11:10:58.517Z,24.49
2023-05-14T11:13:27.320Z,22.93
2023-05-14T11:15:55.208Z,23.09
2023-05-14T11:18:31.681Z,22.71
2023-05-14T11:21:00.279Z,22.82
2023-05-14T11:23:28.671Z,23.95
2023-05-14T11:25:57.751Z,23.28
2023-05-14T11:28:27.209Z,23.55
2023-05-14T11:30:55.485Z,23.73
2023-05-14T11:33:23.279Z,23.70
2023-05-14T11:35:52.350Z,23.65
2023-05-14T11:38:23.111Z,23.34
2023-05-14T11:40:54.565Z,24.08
2023-05-14T11:43:23.738Z,24.38
2023-05-14T11:45:52.556Z,24.57
2023-05-14T11:48:20.821Z,24.39
2023-05-14T11:50:50.044Z,24.94
2023-05-14T11:53:20.354Z,23.91
2023-05-14T11:55:54.777Z,23.15
2023-05-14T11:58:24.720Z,23.90
2023-05-14T12:00:57.382Z,24.47
2023-05-14T12:03:29.584Z,23.79
2023-05-14T12:06:00.666Z,23.27
2023-05-14T12:08:31.264Z,23.88
2023-05-14T12:11:00.467Z,24.58
2023-05-14T12:13:28.784Z,24.59
2023-05-14T12:15:58.004Z,24.46
2023-05-14T12:18:26.694Z,25.02
2023-05-14T12:20:54.701Z,25.74
2023-05-14T12:23:26.825Z,26.53
2023-05-14T12:25:56.421Z,26.76
2023-05-14T12:28:24.995Z,27.07
2023-05-14T12:30:57.642Z,26.43
2023-05-14T12:33:26.507Z,24.38
2023-05-14T12:35:58.957Z,23.18
2023-05-14T12:38:28.369Z,23.84
2023-05-14T12:40:57.401Z,25.10
2023-05-14T12:43:25.080Z,24.18
2023-05-14T12:45:52.780Z,24.02
2023-05-14T12:48:20.552Z,23.74
2023-05-14T12:50:48.755Z,22.91
2023-05-14T12:53:16.822Z,23.44
2023-05-14T12:55:44.514Z,23.22
2023-05-14T12:58:13.705Z,23.71
2023-05-14T13:00:41.407Z,23.14
2023-05-14T13:03:09.149Z,23.53
2023-05-14T13:05:36.886Z,23.74
2023-05-14T13:08:04.595Z,23.02
2023-05-14T13:10:32.366Z,23.41
2023-05-14T13:13:00.113Z,23.53
2023-05-14T13:15:31.556Z,24.95
2023-05-14T13:17:59.347Z,25.84
2023-05-14T13:20:27.572Z,26.80
2023-05-14T13:22:55.356Z,27.08
2023-05-14T13:25:23.289Z,27.01
2023-05-14T13:27:51.709Z,23.97
2023-05-14T13:30:19.613Z,24.51
2023-05-14T13:32:48.840Z,24.50
2023-05-14T13:35:16.622Z,23.72
2023-05-14T13:37:44.766Z,24.19
2023-05-14T13:40:13.342Z,24.45
2023-05-14T13:42:41.099Z,25.43
2023-05-14T13:45:09.819Z,25.54
2023-05-14T13:47:37.575Z,23.50
2023-05-14T13:50:07.816Z,24.03
2023-05-14T13:52:35.537Z,22.73
2023-05-14T13:55:03.177Z,23.39
2023-05-14T13:57:30.821Z,22.56
2023-05-14T13:59:58.556Z,22.84
2023-05-14T14:02:26.303Z,23.45
2023-05-14T14:04:54.434Z,23.42
2023-05-14T14:07:23.531Z,22.62
2023-05-14T14:09:51.482Z,23.18
2023-05-14T14:12:19.185Z,23.87
2023-05-14T14:14:46.942Z,24.55
2023-05-14T14:17:14.640Z,24.73
2023-05-14T14:19:42.451Z,24.38
2023-05-14T14:22:10.306Z,23.45
2023-05-14T14:24:39.452Z,23.89
2023-05-14T14:27:07.185Z,24.24
2023-05-14T14:29:35.466Z,23.12
2023-05-14T14:32:03.188Z,22.71
2023-05-14T14:34:31.014Z,22.87
2023-05-14T14:36:58.699Z,22.84
2023-05-14T14:39:26.534Z,22.49
2023-05-14T14:41:56.106Z,22.23
2023-05-14T14:44:23.818Z,22.40
2023-05-14T14:46:51.588Z,22.41
2023-05-14T14:49:19.228Z,22.43
2023-05-14T14:51:46.937Z,22.63
2023-05-14T14:54:14.600Z,22.62
2023-05-14T14:56:43.350Z,22.72
2023-05-14T14:59:12.422Z,22.55
2023-05-14T15:01:40.181Z,23.15
2023-05-14T15:04:08.010Z,22.61
2023-05-14T15:06:35.647Z,22.25
2023-05-14T15:09:03.611Z,22.40
2023-05-14T15:11:31.318Z,22.57
2023-05-14T15:13:58.981Z,22.65
2023-05-14T15:16:29.187Z,22.17
2023-05-14T15:18:56.925Z,22.63
2023-05-14T15:21:24.638Z,22.76
2023-05-14T15:23:52.352Z,22.55
2023-05-14T15:26:20.230Z,22.90
2023-05-14T15:28:47.995Z,23.30
2023-05-14T15:31:15.746Z,22.60
2023-05-14T15:33:44.834Z,22.25
2023-05-14T15:36:12.841Z,22.05
2023-05-14T15:38:40.601Z,22.26
2023-05-14T15:41:08.599Z,22.98
2023-05-14T15:43:36.573Z,22.78
2023-05-14T15:46:04.267Z,22.83
2023-05-14T15:48:32.001Z,22.41
2023-05-14T15:51:01.034Z,22.18
2023-05-14T15:53:28.882Z,22.09
2023-05-14T15:55:56.589Z,22.60
2023-05-14T15:58:24.243Z,22.49
2023-05-14T16:00:51.904Z,22.17
2023-05-14T16:03:19.730Z,22.16
2023-05-14T16:05:48.553Z,22.34
2023-05-14T16:08:17.656Z,22.29
2023-05-14T16:10:45.374Z,22.36
2023-05-14T16:13:13.096Z,22.11
2023-05-14T16:15:40.770Z,22.53
2023-05-14T16:18:08.617Z,22.55
2023-05-14T16:20:36.283Z,22.58
2023-05-14T16:23:04.024Z,22.45
2023-05-14T16:25:33.115Z,22.07
2023-05-14T16:28:01.500Z,22.18
2023-05-14T16:30:29.244Z,21.99
2023-05-14T16:32:57.054Z,21.97
2023-05-14T16:35:24.793Z,21.74
2023-05-14T16:37:52.448Z,21.59
2023-05-14T16:40:20.260Z,21.81
2023-05-14T16:42:49.764Z,21.79
2023-05-14T16:45:17.432Z,21.72
2023-05-14T16:47:45.368Z,22.08
2023-05-14T16:50:13.118Z,22.09
2023-05-14T16:52:40.797Z,21.84
2023-05-14T16:55:09.344Z,22.15
2023-05-14T16:57:37.087Z,22.05
2023-05-14T17:00:07.818Z,21.94
2023-05-14T17:02:35.580Z,22.04
2023-05-14T17:05:03.978Z,22.16
2023-05-14T17:07:32.178Z,22.39
2023-05-14T17:10:00.783Z,22.44
2023-05-14T17:12:28.538Z,22.54
2023-05-14T17:14:56.246Z,22.32
2023-05-14T17:17:25.415Z,22.33
2023-05-14T17:19:53.152Z,21.95
2023-05-14T17:22:21.211Z,22.14
2023-05-14T17:24:48.875Z,21.95
2023-05-14T17:27:16.843Z,21.91
2023-05-14T17:29:44.596Z,21.78
2023-05-14T17:32:12.702Z,22.19
2023-05-14T17:34:41.775Z,22.19
2023-05-14T17:37:09.561Z,22.17
2023-05-14T17:39:37.398Z,22.04
2023-05-14T17:42:06.342Z,21.87
2023-05-14T17:44:34.038Z,21.77
2023-05-14T17:47:03.097Z,21.44
2023-05-14T17:49:30.846Z,21.33
2023-05-14T17:51:59.830Z,21.36
2023-05-14T17:54:27.835Z,21.60
2023-05-14T17:56:55.659Z,21.02
2023-05-14T17:59:24.368Z,21.43
2023-05-14T18:01:52.233Z,21.28
2023-05-14T18:04:19.957Z,21.40
2023-05-14T18:06:47.704Z,21.48
2023-05-14T18:09:16.857Z,21.47
2023-05-14T18:11:45.296Z,21.41
2023-05-14T18:14:13.084Z,21.40
2023-05-14T18:16:41.250Z,21.51
2023-05-14T18:19:09.047Z,21.76
2023-05-14T18:21:36.944Z,21.64
2023-05-14T18:24:04.987Z,21.46
2023-05-14T18:26:35.012Z,21.64
2023-05-14T18:29:02.711Z,21.70
2023-05-14T18:31:30.572Z,21.41
2023-05-14T18:33:58.391Z,21.40
2023-05-14T18:36:26.132Z,21.33
2023-05-14T18:38:53.830Z,21.11
2023-05-14T18:41:21.519Z,21.11
2023-05-14T18:43:50.616Z,21.04
2023-05-14T18:46:18.358Z,20.93
2023-05-14T18:48:46.028Z,20.84
2023-05-14T18:51:13.916Z,20.75
2023-05-14T18:53:41.639Z,20.62
2023-05-14T18:56:09.586Z,20.58
2023-05-14T18:58:37.394Z,20.48
2023-05-14T19:01:06.433Z,20.30
2023-05-14T19:03:34.299Z,20.15
2023-05-14T19:06:02.046Z,20.13
2023-05-14T19:08:29.732Z,20.05
2023-05-14T19:10:57.370Z,19.99
2023-05-14T19:13:25.514Z,19.85
2023-05-14T19:15:53.290Z,19.79
2023-05-14T19:18:22.390Z,19.67
2023-05-14T19:20:50.122Z,19.60
2023-05-14T19:23:17.848Z,19.51
2023-05-14T19:25:45.913Z,19.41
2023-05-14T19:28:13.617Z,19.26
2023-05-14T19:30:41.292Z,19.12
2023-05-14T19:33:09.038Z,19.10
2023-05-14T19:35:38.250Z,19.05
2023-05-14T19:38:05.970Z,19.02
2023-05-14T19:40:33.646Z,18.98
2023-05-14T19:43:01.367Z,18.86
2023-05-14T19:45:29.439Z,18.77
2023-05-14T19:47:57.429Z,17.81
2023-05-14T19:50:25.198Z,17.07
2023-05-14T19:52:54.263Z,17.21
2023-05-14T19:55:21.947Z,17.16
2023-05-14T19:57:49.661Z,17.17
2023-05-14T20:00:17.810Z,17.15
2023-05-14T20:02:45.567Z,17.02
2023-05-14T20:05:13.930Z,17.05
2023-05-14T20:07:42.120Z,16.83
2023-05-14T20:10:11.809Z,16.82
2023-05-14T20:12:39.637Z,16.66
2023-05-14T20:15:08.104Z,16.56
2023-05-14T20:17:35.791Z,16.94
2023-05-14T20:20:04.900Z,16.41
2023-05-14T20:22:32.631Z,16.42
2023-05-14T20:25:00.287Z,16.34
2023-05-14T20:27:29.383Z,16.30
2023-05-14T20:29:57.070Z,16.07
2023-05-14T20:32:25.434Z,16.23
2023-05-14T20:34:53.095Z,16.25
2023-05-14T20:37:21.563Z,16.39
2023-05-14T20:39:49.264Z,15.94
2023-05-14T20:42:16.914Z,15.77
2023-05-14T20:44:48.221Z,16.07
2023-05-14T20:47:20.092Z,15.63
2023-05-14T20:49:48.284Z,15.66
2023-05-14T20:52:16.545Z,15.68
2023-05-14T20:54:44.451Z,15.77
2023-05-14T20:57:12.937Z,15.59
2023-05-14T20:59:40.633Z,15.78
2023-05-14T21:02:09.909Z,15.65
2023-05-14T21:04:37.860Z,15.20
2023-05-14T21:07:06.340Z,15.32
2023-05-14T21:09:34.183Z,15.57
2023-05-14T21:12:01.922Z,15.01
2023-05-14T21:14:29.583Z,14.89
2023-05-14T21:16:57.326Z,14.99
2023-05-14T21:19:26.331Z,14.70
2023-05-14T21:21:54.059Z,14.66
2023-05-14T21:24:21.764Z,14.85
2023-05-14T21:26:49.997Z,14.77
2023-05-14T21:29:18.775Z,14.62
2023-05-14T21:31:46.529Z,14.63
2023-05-14T21:34:14.273Z,14.86
2023-05-14T21:36:43.374Z,14.93
2023-05-14T21:39:11.060Z,14.90
2023-05-14T21:41:38.835Z,14.63
2023-05-14T21:44:06.731Z,14.77
2023-05-14T21:46:34.422Z,14.64
2023-05-14T21:49:02.199Z,14.79
2023-05-14T21:51:29.972Z,14.42
2023-05-14T21:53:59.059Z,14.35
2023-05-14T21:56:27.287Z,14.16
2023-05-14T21:58:56.116Z,14.54
2023-05-14T22:01:24.579Z,14.74
2023-05-14T22:03:52.387Z,14.82
2023-05-14T22:06:20.113Z,14.24
2023-05-14T22:08:47.830Z,14.08
2023-05-14T22:11:16.897Z,13.86
2023-05-14T22:13:44.530Z,13.88
2023-05-14T22:16:14.017Z,14.28
2023-05-14T22:18:42.580Z,14.03
2023-05-14T22:21:10.254Z,14.22
2023-05-14T22:23:37.960Z,14.36
2023-05-14T22:26:05.988Z,14.42
2023-05-14T22:28:35.107Z,14.50
2023-05-14T22:31:04.214Z,14.67
2023-05-14T22:33:33.118Z,14.56
2023-05-14T22:36:00.794Z,14.10
2023-05-14T22:38:28.487Z,13.91
2023-05-14T22:40:56.127Z,13.81
2023-05-14T22:43:23.912Z,13.84
2023-05-14T22:45:52.988Z,13.72
2023-05-14T22:48:20.641Z,13.64
2023-05-14T22:50:48.290Z,13.23
2023-05-14T22:53:16.216Z,13.80
2023-05-14T22:55:43.897Z,13.53
2023-05-14T22:58:11.774Z,13.46
2023-05-14T23:00:39.515Z,13.33
2023-05-14T23:03:08.704Z,13.15
2023-05-14T23:05:36.499Z,13.27
2023-05-14T23:08:04.419Z,13.19
2023-05-14T23:10:32.084Z,13.18
2023-05-14T23:12:59.746Z,13.17
2023-05-14T23:15:27.729Z,13.07
2023-05-14T23:17:55.539Z,13.14
2023-05-14T23:20:24.986Z,13.20
2023-05-14T23:22:54.070Z,13.28
2023-05-14T23:25:21.979Z,13.39
2023-05-14T23:27:50.067Z,13.35
2023-05-14T23:30:17.961Z,12.98
2023-05-14T23:32:45.782Z,12.93
2023-05-14T23:35:13.521Z,13.10
2023-05-14T23:37:47.234Z,13.16
2023-05-14T23:40:15.700Z,13.29
2023-05-14T23:42:43.906Z,13.38
2023-05-14T23:45:12.805Z,13.31
2023-05-14T23:47:41.438Z,13.32
2023-05-14T23:50:09.492Z,13.30
2023-05-14T23:52:37.171Z,13.36
2023-05-14T23:55:07.232Z,13.21
2023-05-14T23:57:35.062Z,13.11
